createdAt,value
2017-04-04T13:31:56.331Z,1014.71
2017-04-04T13:32:57.768Z,1014.76
2017-04-04T13:33:59.216Z,1014.77
2017-04-04T13:35:00.660Z,1014.78
2017-04-04T13:36:02.107Z,1014.80
2017-04-04T13:37:03.542Z,1014.77
2017-04-04T13:38:04.992Z,1014.79
2017-04-04T13:39:06.479Z,1014.66
2017-04-04T13:40:07.877Z,1014.77
2017-04-04T13:41:09.330Z,1014.75
2017-04-04T13:42:10.771Z,1014.73
2017-04-04T13:43:12.225Z,1014.68
2017-04-04T13:44:13.667Z,1014.59
2017-04-04T13:45:15.108Z,1014.62
2017-04-04T13:46:16.551Z,1014.56
2017-04-04T13:47:17.995Z,1014.66
2017-04-04T13:48:19.435Z,1014.57
2017-04-04T13:49:20.884Z,1014.41
2017-04-04T13:50:22.323Z,1014.30
2017-04-04T13:51:23.772Z,1014.20
2017-04-04T13:52:25.215Z,1014.16
2017-04-04T13:53:26.659Z,1014.19
2017-04-04T13:54:28.118Z,1014.11
2017-04-04T13:55:29.563Z,1014.12
2017-04-04T13:56:31.006Z,1014.15
2017-04-04T13:57:32.459Z,1014.12
2017-04-04T13:58:33.916Z,1014.04
2017-04-04T13:59:35.363Z,1014.01
2017-04-04T14:00:36.800Z,1014.01
2017-04-04T14:01:38.247Z,1013.99
2017-04-04T14:02:39.704Z,1013.99
2017-04-04T14:03:41.151Z,1013.92
2017-04-04T14:04:42.594Z,1013.87
2017-04-04T14:05:44.045Z,1013.91
2017-04-04T14:06:45.515Z,1013.90
2017-04-04T14:07:47.787Z,1013.87
2017-04-04T14:08:49.272Z,1013.93
2017-04-04T14:09:50.680Z,1013.89
2017-04-04T14:10:52.121Z,1013.87
2017-04-04T14:11:53.576Z,1013.88
2017-04-04T14:12:55.018Z,1013.88
2017-04-04T14:13:56.467Z,1013.90
2017-04-04T14:14:57.909Z,1013.93
2017-04-04T14:15:59.355Z,1013.89
2017-04-04T14:17:00.795Z,1013.85
2017-04-04T14:18:02.237Z,1013.90
2017-04-04T14:19:03.688Z,1013.82
2017-04-04T14:20:05.119Z,1013.82
2017-04-04T14:21:06.558Z,1013.84
2017-04-04T14:22:07.998Z,1013.84
2017-04-04T14:23:09.444Z,1013.80
2017-04-04T14:24:10.882Z,1013.79
2017-04-04T14:25:12.329Z,1013.78
2017-04-04T14:26:13.760Z,1013.79
2017-04-04T14:27:15.197Z,1013.85
2017-04-04T14:28:16.642Z,1013.81
2017-04-04T14:29:18.087Z,1013.83
2017-04-04T14:30:19.529Z,1013.80
2017-04-04T14:31:20.973Z,1013.79
2017-04-04T14:32:22.408Z,1013.76
2017-04-04T14:33:23.860Z,1013.76
2017-04-04T14:34:25.412Z,1013.76
2017-04-04T14:35:26.843Z,1013.75
2017-04-04T14:36:28.309Z,1013.73
2017-04-04T14:37:29.746Z,1013.75
2017-04-04T14:38:31.120Z,1013.77
2017-04-04T14:39:32.570Z,1013.77
2017-04-04T14:40:34.008Z,1013.73
2017-04-04T14:41:35.442Z,1013.69
2017-04-04T14:42:36.874Z,1013.71
2017-04-04T14:43:38.308Z,1013.72
2017-04-04T14:44:39.753Z,1013.68
2017-04-04T14:45:41.191Z,1013.69
2017-04-04T14:46:42.626Z,1013.67
2017-04-04T14:47:44.063Z,1013.72
2017-04-04T14:48:45.499Z,1013.72
2017-04-04T14:49:46.934Z,1013.73
2017-04-04T14:50:48.380Z,1013.75
2017-04-04T14:51:49.816Z,1013.74
2017-04-04T14:52:51.267Z,1013.78
2017-04-04T14:53:52.702Z,1013.76
2017-04-04T14:54:54.148Z,1013.71
2017-04-04T14:55:55.582Z,1013.70
2017-04-04T14:56:57.018Z,1013.70
2017-04-04T14:57:58.456Z,1013.69
2017-04-04T14:58:59.906Z,1013.69
2017-04-04T15:00:01.345Z,1013.70
2017-04-04T15:01:02.774Z,1013.73
2017-04-04T15:02:04.214Z,1013.67
2017-04-04T15:03:05.659Z,1013.72
2017-04-04T15:04:07.087Z,1013.70
2017-04-04T15:05:08.631Z,1013.73
2017-04-04T15:06:10.060Z,1013.73
2017-04-04T15:07:11.508Z,1013.72
2017-04-04T15:08:12.940Z,1013.72
2017-04-04T15:09:14.370Z,1013.73
2017-04-04T15:10:15.817Z,1013.70
2017-04-04T15:11:17.255Z,1013.71
2017-04-04T15:12:18.706Z,1013.76
2017-04-04T15:13:20.134Z,1013.71
2017-04-04T15:14:21.577Z,1013.70
2017-04-04T15:15:23.020Z,1013.69
2017-04-04T15:16:24.450Z,1013.65
2017-04-04T15:17:25.887Z,1013.67
2017-04-04T15:18:27.323Z,1013.63
2017-04-04T15:19:28.751Z,1013.65
2017-04-04T15:20:30.196Z,1013.66
2017-04-04T15:21:31.632Z,1013.69
2017-04-04T15:22:33.062Z,1013.68
2017-04-04T15:23:34.499Z,1013.68
2017-04-04T15:24:35.928Z,1013.65
2017-04-04T15:25:37.372Z,1013.67
2017-04-04T15:26:38.806Z,1013.71
2017-04-04T15:27:40.244Z,1013.65
2017-04-04T15:28:41.672Z,1013.66
2017-04-04T15:29:43.113Z,1013.65
2017-04-04T15:30:44.552Z,1013.72
2017-04-04T15:31:45.985Z,1013.67
2017-04-04T15:32:47.441Z,1013.68
2017-04-04T15:33:48.878Z,1013.70
2017-04-04T15:34:50.313Z,1013.72
2017-04-04T15:35:51.753Z,1013.72
2017-04-04T15:36:53.199Z,1013.70
2017-04-04T15:37:54.633Z,1013.73
2017-04-04T15:38:56.066Z,1013.75
2017-04-04T15:39:57.494Z,1013.70
2017-04-04T15:40:58.936Z,1013.73
2017-04-04T15:42:00.380Z,1013.71
2017-04-04T15:43:01.811Z,1013.74
2017-04-04T15:44:03.247Z,1013.73
2017-04-04T15:45:04.703Z,1013.67
2017-04-04T15:46:06.133Z,1013.71
2017-04-04T15:47:07.569Z,1013.68
2017-04-04T15:48:09.007Z,1013.71
2017-04-04T15:49:10.442Z,1013.73
2017-04-04T15:50:11.877Z,1013.73
2017-04-04T15:51:13.314Z,1013.77
2017-04-04T15:52:14.769Z,1013.73
2017-04-04T15:53:16.208Z,1013.75
2017-04-04T15:54:17.644Z,1013.70
2017-04-04T15:55:19.083Z,1013.72
2017-04-04T15:56:20.525Z,1013.75
2017-04-04T15:57:22.828Z,1013.76
2017-04-04T15:58:24.258Z,1013.79
2017-04-04T15:59:25.706Z,1013.80
2017-04-04T16:00:27.149Z,1013.80
2017-04-04T16:01:28.586Z,1013.77
2017-04-04T16:02:30.037Z,1013.78
2017-04-04T16:03:31.485Z,1013.78
2017-04-04T16:04:32.923Z,1013.80
2017-04-04T16:05:34.349Z,1013.73
2017-04-04T16:06:35.784Z,1013.71
2017-04-04T16:07:37.223Z,1013.72
2017-04-04T16:08:38.659Z,1013.69
2017-04-04T16:09:40.094Z,1013.71
2017-04-04T16:10:41.531Z,1013.75
2017-04-04T16:11:42.971Z,1013.77
2017-04-04T16:12:44.408Z,1013.68
2017-04-04T16:13:45.858Z,1013.77
2017-04-04T16:14:47.297Z,1013.76
2017-04-04T16:15:48.726Z,1013.74
2017-04-04T16:16:50.166Z,1013.75
2017-04-04T16:17:51.606Z,1013.76
2017-04-04T16:18:53.035Z,1013.80
2017-04-04T16:19:54.469Z,1013.77
2017-04-04T16:20:55.908Z,1013.78
2017-04-04T16:21:57.349Z,1013.78
2017-04-04T16:22:58.784Z,1013.83
2017-04-04T16:24:00.213Z,1013.77
2017-04-04T16:25:01.645Z,1013.76
2017-04-04T16:26:03.083Z,1013.79
2017-04-04T16:27:04.524Z,1013.80
2017-04-04T16:28:05.965Z,1013.81
2017-04-04T16:29:07.394Z,1013.81
2017-04-04T16:30:08.836Z,1013.85
2017-04-04T16:31:10.277Z,1013.88
2017-04-04T16:32:11.711Z,1013.80
2017-04-04T16:33:13.151Z,1013.84
2017-04-04T16:34:14.590Z,1013.86
2017-04-04T16:35:16.016Z,1013.74
2017-04-04T16:36:17.469Z,1013.79
2017-04-04T16:37:18.913Z,1013.77
2017-04-04T16:38:20.345Z,1013.85
2017-04-04T16:39:21.774Z,1013.82
2017-04-04T16:40:23.219Z,1013.85
2017-04-04T16:41:24.654Z,1013.80
2017-04-04T16:42:26.098Z,1013.83
2017-04-04T16:43:27.530Z,1013.79
2017-04-04T16:44:28.973Z,1013.85
2017-04-04T16:45:30.400Z,1013.82
2017-04-04T16:46:31.844Z,1013.78
2017-04-04T16:47:33.289Z,1013.76
2017-04-04T16:48:34.720Z,1013.86
2017-04-04T16:49:36.171Z,1013.85
2017-04-04T16:50:37.601Z,1013.80
2017-04-04T16:51:39.033Z,1013.79
2017-04-04T16:52:40.469Z,1013.79
2017-04-04T16:53:41.959Z,1013.80
2017-04-04T16:54:43.394Z,1013.84
2017-04-04T16:55:44.829Z,1013.81
2017-04-04T16:56:46.257Z,1013.81
2017-04-04T16:57:47.808Z,1013.81
2017-04-04T16:58:49.250Z,1013.81
2017-04-04T16:59:50.688Z,1013.85
2017-04-04T17:00:52.126Z,1013.83
2017-04-04T17:01:53.571Z,1013.86
2017-04-04T17:02:55.010Z,1013.83
2017-04-04T17:03:56.455Z,1013.81
2017-04-04T17:04:57.892Z,1013.84
2017-04-04T17:05:59.344Z,1013.86
2017-04-04T17:07:00.776Z,1013.86
2017-04-04T17:08:02.219Z,1013.87
2017-04-04T17:09:03.734Z,1013.91
2017-04-04T17:10:05.168Z,1013.88
2017-04-04T17:11:06.597Z,1013.93
2017-04-04T17:12:08.029Z,1013.91
2017-04-04T17:13:09.464Z,1013.89
2017-04-04T17:14:10.914Z,1013.86
2017-04-04T17:15:12.343Z,1013.91
2017-04-04T17:16:13.845Z,1013.86
2017-04-04T17:17:15.274Z,1013.88
2017-04-04T17:18:16.712Z,1013.91
2017-04-04T17:19:18.194Z,1013.88
2017-04-04T17:20:19.625Z,1013.93
2017-04-04T17:21:21.059Z,1013.92
2017-04-04T17:22:22.484Z,1013.92
2017-04-04T17:23:23.935Z,1013.93
2017-04-04T17:24:25.386Z,1013.87
2017-04-04T17:25:26.831Z,1013.92
2017-04-04T17:26:28.272Z,1013.92
2017-04-04T17:27:29.710Z,1013.90
2017-04-04T17:28:31.147Z,1013.95
2017-04-04T17:29:32.575Z,1013.94
2017-04-04T17:30:34.011Z,1013.91
2017-04-04T17:31:35.447Z,1013.93
2017-04-04T17:32:36.880Z,1013.95
2017-04-04T17:33:38.322Z,1013.92
2017-04-04T17:34:39.765Z,1013.98
2017-04-04T17:35:41.203Z,1013.94
2017-04-04T17:36:42.632Z,1013.96
2017-04-04T17:37:44.171Z,1013.92
2017-04-04T17:38:45.611Z,1013.90
2017-04-04T17:39:47.048Z,1013.93
2017-04-04T17:40:48.501Z,1013.92
2017-04-04T17:41:49.930Z,1013.88
2017-04-04T17:42:51.363Z,1014.01
2017-04-04T17:43:52.807Z,1013.94
2017-04-04T17:44:54.235Z,1013.99
2017-04-04T17:45:55.682Z,1013.97
2017-04-04T17:46:57.131Z,1013.98
2017-04-04T17:47:58.564Z,1013.90
2017-04-04T17:49:00.035Z,1013.95
2017-04-04T17:50:01.471Z,1013.95
2017-04-04T17:51:02.913Z,1013.92
2017-04-04T17:52:04.350Z,1013.91
2017-04-04T17:53:05.789Z,1013.92
2017-04-04T17:54:07.227Z,1013.91
2017-04-04T17:55:08.677Z,1013.92
2017-04-04T17:56:10.108Z,1013.89
2017-04-04T17:57:11.543Z,1013.92
2017-04-04T17:58:12.977Z,1013.90
2017-04-04T17:59:14.416Z,1013.89
2017-04-04T18:00:15.920Z,1013.85
2017-04-04T18:01:17.358Z,1013.86
2017-04-04T18:02:18.789Z,1013.88
2017-04-04T18:03:20.213Z,1013.83
2017-04-04T18:04:21.645Z,1013.87
2017-04-04T18:05:23.077Z,1013.88
2017-04-04T18:06:24.508Z,1013.87
2017-04-04T18:07:25.944Z,1013.91
2017-04-04T18:08:27.411Z,1013.90
2017-04-04T18:09:28.838Z,1013.91
2017-04-04T18:10:30.273Z,1013.93
2017-04-04T18:11:31.701Z,1013.96
2017-04-04T18:12:33.140Z,1013.99
2017-04-04T18:13:34.570Z,1013.99
2017-04-04T18:14:36.084Z,1014.03
2017-04-04T18:15:37.528Z,1014.02
2017-04-04T18:16:38.962Z,1013.97
2017-04-04T18:17:40.395Z,1014.00
2017-04-04T18:18:41.913Z,1014.01
2017-04-04T18:19:44.917Z,1014.03
2017-04-04T18:20:46.349Z,1014.05
2017-04-04T18:21:47.776Z,1014.07
2017-04-04T18:22:49.214Z,1014.08
2017-04-04T18:23:50.646Z,1014.08
2017-04-04T18:24:52.072Z,1014.09
2017-04-04T18:25:53.507Z,1014.10
2017-04-04T18:26:54.937Z,1014.12
2017-04-04T18:27:56.378Z,1014.11
2017-04-04T18:28:57.803Z,1014.06
2017-04-04T18:29:59.228Z,1014.08
2017-04-04T18:31:00.672Z,1014.11
2017-04-04T18:32:02.114Z,1014.08
2017-04-04T18:33:03.544Z,1014.11
2017-04-04T18:34:05.004Z,1014.10
2017-04-04T18:35:06.410Z,1014.12
2017-04-04T18:36:07.838Z,1014.13
2017-04-04T18:37:09.268Z,1014.16
2017-04-04T18:38:10.702Z,1014.11
2017-04-04T18:39:12.142Z,1014.08
2017-04-04T18:40:13.573Z,1014.12
2017-04-04T18:41:15.006Z,1014.12
2017-04-04T18:42:16.428Z,1014.14
2017-04-04T18:43:17.862Z,1014.15
2017-04-04T18:44:19.298Z,1014.12
2017-04-04T18:45:20.729Z,1014.18
2017-04-04T18:46:22.159Z,1014.15
2017-04-04T18:47:23.603Z,1014.20
2017-04-04T18:48:25.031Z,1014.18
2017-04-04T18:49:26.463Z,1014.20
2017-04-04T18:50:27.890Z,1014.17
2017-04-04T18:51:29.314Z,1014.15
2017-04-04T18:52:30.740Z,1014.18
2017-04-04T18:53:32.178Z,1014.19
2017-04-04T18:54:33.620Z,1014.21
2017-04-04T18:55:35.038Z,1014.24
2017-04-04T18:56:36.469Z,1014.25
2017-04-04T18:57:37.888Z,1014.21
2017-04-04T18:58:39.318Z,1014.23
2017-04-04T18:59:40.762Z,1014.26
2017-04-04T19:00:42.196Z,1014.29
2017-04-04T19:01:43.631Z,1014.28
2017-04-04T19:02:45.059Z,1014.25
2017-04-04T19:03:46.480Z,1014.32
2017-04-04T19:04:47.923Z,1014.30
2017-04-04T19:05:49.356Z,1014.28
2017-04-04T19:06:50.785Z,1014.32
2017-04-04T19:07:52.212Z,1014.32
2017-04-04T19:08:53.649Z,1014.35
2017-04-04T19:09:55.076Z,1014.34
2017-04-04T19:10:57.815Z,1014.33
2017-04-04T19:11:59.251Z,1014.34
2017-04-04T19:13:05.131Z,1014.36
2017-04-04T19:14:06.562Z,1014.33
2017-04-04T19:15:10.659Z,1014.35
2017-04-04T19:16:12.076Z,1014.35
2017-04-04T19:17:13.511Z,1014.41
2017-04-04T19:18:14.935Z,1014.40
2017-04-04T19:19:16.356Z,1014.40
2017-04-04T19:20:17.865Z,1014.40
2017-04-04T19:21:19.297Z,1014.41
2017-04-04T19:22:20.717Z,1014.44
2017-04-04T19:23:22.142Z,1014.45
2017-04-04T19:24:23.574Z,1014.49
2017-04-04T19:25:25.011Z,1014.47
2017-04-04T19:26:26.437Z,1014.48
2017-04-04T19:27:27.868Z,1014.46
2017-04-04T19:28:29.300Z,1014.50
2017-04-04T19:29:30.730Z,1014.46
2017-04-04T19:30:32.157Z,1014.47
2017-04-04T19:31:33.591Z,1014.48
2017-04-04T19:32:35.033Z,1014.47
2017-04-04T19:33:36.463Z,1014.49
2017-04-04T19:34:37.899Z,1014.46
2017-04-04T19:35:39.332Z,1014.48
2017-04-04T19:36:40.762Z,1014.44
2017-04-04T19:37:42.198Z,1014.44
2017-04-04T19:38:43.650Z,1014.43
2017-04-04T19:39:45.088Z,1014.46
2017-04-04T19:40:46.519Z,1014.40
2017-04-04T19:41:47.952Z,1014.41
2017-04-04T19:42:49.381Z,1014.43
2017-04-04T19:43:50.819Z,1014.45
2017-04-04T19:44:52.256Z,1014.46
2017-04-04T19:45:53.690Z,1014.46
2017-04-04T19:46:55.124Z,1014.43
2017-04-04T19:47:56.552Z,1014.42
2017-04-04T19:48:57.982Z,1014.42
2017-04-04T19:49:59.415Z,1014.42
2017-04-04T19:51:00.851Z,1014.47
2017-04-04T19:52:02.292Z,1014.42
2017-04-04T19:53:03.721Z,1014.42
2017-04-04T19:54:05.151Z,1014.45
2017-04-04T19:55:06.580Z,1014.44
2017-04-04T19:56:08.018Z,1014.43
2017-04-04T19:57:09.447Z,1014.46
2017-04-04T19:58:10.869Z,1014.44
2017-04-04T19:59:12.304Z,1014.44
2017-04-04T20:00:13.737Z,1014.46
2017-04-04T20:01:15.160Z,1014.46
2017-04-04T20:02:16.595Z,1014.52
2017-04-04T20:03:18.020Z,1014.51
2017-04-04T20:04:19.446Z,1014.52
2017-04-04T20:05:20.895Z,1014.52
2017-04-04T20:06:22.326Z,1014.53
2017-04-04T20:07:23.756Z,1014.48
2017-04-04T20:08:25.179Z,1014.53
2017-04-04T20:09:27.102Z,1014.53
2017-04-04T20:10:28.531Z,1014.50
2017-04-04T20:11:29.955Z,1014.54
2017-04-04T20:12:31.379Z,1014.51
2017-04-04T20:13:32.811Z,1014.53
2017-04-04T20:14:34.230Z,1014.47
2017-04-04T20:15:35.661Z,1014.47
2017-04-04T20:16:37.086Z,1014.52
2017-04-04T20:17:38.514Z,1014.54
2017-04-04T20:18:39.950Z,1014.54
2017-04-04T20:19:41.374Z,1014.57
2017-04-04T20:20:43.579Z,1014.53
2017-04-04T20:21:45.947Z,1014.60
2017-04-04T20:22:47.378Z,1014.65
2017-04-04T20:23:49.721Z,1014.59
2017-04-04T20:24:51.163Z,1014.61
2017-04-04T20:25:53.124Z,1014.62
2017-04-04T20:26:55.126Z,1014.63
2017-04-04T20:27:57.295Z,1014.62
2017-04-04T20:28:58.720Z,1014.63
2017-04-04T20:30:00.688Z,1014.62
2017-04-04T20:31:02.805Z,1014.60
2017-04-04T20:32:04.234Z,1014.64
2017-04-04T20:33:06.547Z,1014.60
2017-04-04T20:34:08.825Z,1014.64
2017-04-04T20:35:10.251Z,1014.64
2017-04-04T20:36:12.600Z,1014.59
2017-04-04T20:37:14.024Z,1014.61
2017-04-04T20:38:15.967Z,1014.63
2017-04-04T20:39:17.393Z,1014.59
2017-04-04T20:40:18.827Z,1014.64
2017-04-04T20:41:20.273Z,1014.57
2017-04-04T20:42:22.269Z,1014.56
2017-04-04T20:43:24.277Z,1014.62
2017-04-04T20:44:26.271Z,1014.62
2017-04-04T20:45:28.697Z,1014.60
2017-04-04T20:46:30.126Z,1014.64
2017-04-04T20:47:32.082Z,1014.62
2017-04-04T20:48:34.487Z,1014.68
2017-04-04T20:49:36.819Z,1014.66
2017-04-04T20:50:39.169Z,1014.67
2017-04-04T20:51:40.599Z,1014.68
2017-04-04T20:52:42.784Z,1014.70
2017-04-04T20:53:44.819Z,1014.68
2017-04-04T20:54:46.827Z,1014.64
2017-04-04T20:55:48.823Z,1014.69
2017-04-04T20:56:50.777Z,1014.64
2017-04-04T20:57:53.079Z,1014.61
2017-04-04T20:58:55.323Z,1014.60
2017-04-04T20:59:56.770Z,1014.65
2017-04-04T21:00:58.915Z,1014.68
2017-04-04T21:02:01.832Z,1014.67
2017-04-04T21:03:03.270Z,1014.66
2017-04-04T21:04:05.342Z,1014.69
2017-04-04T21:05:07.423Z,1014.71
2017-04-04T21:06:09.597Z,1014.71
2017-04-04T21:07:11.029Z,1014.68
2017-04-04T21:08:13.087Z,1014.64
2017-04-04T21:09:15.282Z,1014.68
2017-04-04T21:10:17.421Z,1014.62
2017-04-04T21:11:19.429Z,1014.66
2017-04-04T21:12:21.657Z,1014.60
2017-04-04T21:13:23.080Z,1014.62
2017-04-04T21:14:25.420Z,1014.63
2017-04-04T21:15:26.853Z,1014.62
2017-04-04T21:16:28.921Z,1014.68
2017-04-04T21:17:31.114Z,1014.63
2017-04-04T21:18:32.572Z,1014.63
2017-04-04T21:19:34.866Z,1014.67
2017-04-04T21:20:36.323Z,1014.65
2017-04-04T21:21:37.756Z,1014.68
2017-04-04T21:22:39.212Z,1014.68
2017-04-04T21:23:41.654Z,1014.69
2017-04-04T21:24:43.085Z,1014.67
2017-04-04T21:25:45.291Z,1014.70
2017-04-04T21:26:47.622Z,1014.68
2017-04-04T21:27:49.054Z,1014.70
2017-04-04T21:28:50.489Z,1014.73
2017-04-04T21:29:52.597Z,1014.73
2017-04-04T21:30:54.731Z,1014.77
2017-04-04T21:31:56.818Z,1014.74
2017-04-04T21:32:58.919Z,1014.76
2017-04-04T21:34:00.938Z,1014.78
2017-04-04T21:35:04.461Z,1014.74
2017-04-04T21:36:07.272Z,1014.76
2017-04-04T21:37:09.318Z,1014.74
2017-04-04T21:38:11.315Z,1014.79
2017-04-04T21:39:13.177Z,1014.79
2017-04-04T21:40:15.585Z,1014.81
2017-04-04T21:41:17.006Z,1014.78
2017-04-04T21:42:19.023Z,1014.81
2017-04-04T21:43:21.130Z,1014.88
2017-04-04T21:44:22.558Z,1014.90
2017-04-04T21:45:24.904Z,1014.88
2017-04-04T21:46:27.127Z,1014.84
2017-04-04T21:47:28.561Z,1014.89
2017-04-04T21:48:31.442Z,1014.90
2017-04-04T21:49:33.121Z,1014.89
2017-04-04T21:50:34.562Z,1014.93
2017-04-04T21:51:36.584Z,1014.91
2017-04-04T21:52:38.675Z,1014.87
2017-04-04T21:53:40.103Z,1014.92
2017-04-04T21:54:42.089Z,1014.90
2017-04-04T21:55:44.132Z,1014.89
2017-04-04T21:56:46.133Z,1014.91
2017-04-04T21:57:48.329Z,1014.91
2017-04-04T21:58:50.388Z,1014.89
2017-04-04T21:59:51.840Z,1014.86
2017-04-04T22:00:54.029Z,1014.88
2017-04-04T22:01:56.337Z,1014.92
2017-04-04T22:02:57.777Z,1014.94
2017-04-04T22:03:59.995Z,1015.00
2017-04-04T22:05:02.339Z,1014.97
2017-04-04T22:06:03.786Z,1014.94
2017-04-04T22:07:05.938Z,1014.97
2017-04-04T22:08:08.068Z,1014.98
2017-04-04T22:09:10.056Z,1014.96
2017-04-04T22:10:12.468Z,1014.95
2017-04-04T22:11:14.437Z,1014.97
2017-04-04T22:12:15.865Z,1014.96
2017-04-04T22:13:17.875Z,1015.00
2017-04-04T22:14:19.886Z,1014.99
2017-04-04T22:15:21.965Z,1015.01
2017-04-04T22:16:24.080Z,1015.03
2017-04-04T22:17:26.176Z,1015.03
2017-04-04T22:18:28.192Z,1015.06
2017-04-04T22:19:30.186Z,1015.04
2017-04-04T22:20:32.964Z,1015.06
2017-04-04T22:21:34.401Z,1015.06
2017-04-04T22:22:36.790Z,1015.04
2017-04-04T22:23:38.232Z,1015.03
2017-04-04T22:24:40.221Z,1015.06
2017-04-04T22:25:42.248Z,1015.09
2017-04-04T22:26:44.289Z,1015.12
2017-04-04T22:27:46.361Z,1015.09
2017-04-04T22:28:48.539Z,1015.06
2017-04-04T22:29:49.971Z,1015.05
2017-04-04T22:30:51.944Z,1015.05
2017-04-04T22:31:54.057Z,1015.05
2017-04-04T22:32:55.502Z,1015.06
2017-04-04T22:33:57.840Z,1015.01
2017-04-04T22:34:59.277Z,1015.02
2017-04-04T22:36:01.243Z,1015.00
2017-04-04T22:37:03.342Z,1014.99
2017-04-04T22:38:05.348Z,1015.02
2017-04-04T22:39:07.373Z,1015.03
2017-04-04T22:40:08.801Z,1015.06
2017-04-04T22:41:11.213Z,1015.06
2017-04-04T22:42:12.647Z,1015.08
2017-04-04T22:43:14.666Z,1015.08
2017-04-04T22:44:16.839Z,1015.05
2017-04-04T22:45:18.280Z,1015.06
2017-04-04T22:46:20.549Z,1015.08
2017-04-04T22:47:21.974Z,1015.11
2017-04-04T22:48:23.400Z,1015.13
2017-04-04T22:49:25.745Z,1015.09
2017-04-04T22:50:28.094Z,1015.12
2017-04-04T22:51:29.518Z,1015.13
2017-04-04T22:52:31.543Z,1015.08
2017-04-04T22:53:32.987Z,1015.08
2017-04-04T22:54:35.251Z,1015.09
2017-04-04T22:55:36.689Z,1015.10
2017-04-04T22:56:39.048Z,1015.07
2017-04-04T22:57:42.932Z,1015.09
2017-04-04T22:58:45.342Z,1015.06
2017-04-04T23:00:49.038Z,1015.11
2017-04-04T23:01:51.164Z,1015.09
2017-04-04T23:02:53.328Z,1015.09
2017-04-04T23:03:55.452Z,1015.11
2017-04-04T23:04:57.454Z,1015.10
2017-04-04T23:05:59.407Z,1015.08
2017-04-04T23:07:01.849Z,1015.14
2017-04-04T23:08:03.243Z,1015.07
2017-04-04T23:09:05.261Z,1015.11
2017-04-04T23:10:07.498Z,1015.08
2017-04-04T23:11:09.685Z,1015.15
2017-04-04T23:12:12.026Z,1015.14
2017-04-04T23:13:14.099Z,1015.11
2017-04-04T23:14:16.113Z,1015.10
2017-04-04T23:15:18.057Z,1015.09
2017-04-04T23:16:20.068Z,1015.07
2017-04-04T23:17:22.415Z,1015.04
2017-04-04T23:18:24.601Z,1015.07
2017-04-04T23:19:26.845Z,1015.04
2017-04-04T23:20:29.034Z,1015.04
2017-04-04T23:21:30.457Z,1015.01
2017-04-04T23:22:32.852Z,1015.04
2017-04-04T23:23:34.318Z,1015.08
2017-04-04T23:24:36.286Z,1015.07
2017-04-04T23:25:38.303Z,1015.03
2017-04-04T23:26:40.269Z,1015.03
2017-04-04T23:27:42.574Z,1015.03
2017-04-04T23:28:44.840Z,1015.02
2017-04-04T23:29:47.008Z,1015.00
2017-04-04T23:30:49.227Z,1015.03
2017-04-04T23:31:50.656Z,1015.01
2017-04-04T23:32:52.792Z,1015.01
2017-04-04T23:33:54.774Z,1015.05
2017-04-04T23:34:56.716Z,1015.01
2017-04-04T23:35:58.708Z,1015.01
2017-04-04T23:37:00.640Z,1015.00
2017-04-04T23:38:02.936Z,1014.98
2017-04-04T23:39:05.156Z,1015.04
2017-04-04T23:40:07.523Z,1015.06
2017-04-04T23:41:09.724Z,1015.04
2017-04-04T23:42:11.154Z,1015.04
2017-04-04T23:43:13.166Z,1015.03
2017-04-04T23:44:15.221Z,1014.98
2017-04-04T23:45:17.628Z,1015.00
2017-04-04T23:46:19.965Z,1015.02
2017-04-04T23:47:21.396Z,1015.01
2017-04-04T23:48:23.738Z,1015.02
2017-04-04T23:49:26.022Z,1014.97
2017-04-04T23:50:28.394Z,1015.00
2017-04-04T23:51:29.825Z,1015.00
2017-04-04T23:52:31.940Z,1014.99
2017-04-04T23:53:34.003Z,1014.98
2017-04-04T23:54:36.019Z,1014.95
2017-04-04T23:55:37.979Z,1014.96
2017-04-04T23:56:40.433Z,1014.93
2017-04-04T23:57:42.683Z,1014.94
2017-04-04T23:58:44.113Z,1015.00
2017-04-04T23:59:45.538Z,1014.92
